sensor_id;sensor_type;location;lat;lon;timestamp;P1;durP1;ratioP1;P2;durP2;ratioP2
8104;SDS011;4095;48.942;9.104;2023-12-20T00:02:16;13.53;;;10.77;;
8104;SDS011;4095;48.942;9.104;2023-12-20T00:04:42;13.37;;;10.30;;
8104;SDS011;4095;48.942;9.104;2023-12-20T00:07:08;13.63;;;10.83;;
8104;SDS011;4095;48.942;9.104;2023-12-20T00:09:33;14.40;;;11.80;;
8104;SDS011;4095;48.942;9.104;2023-12-20T00:11:59;14.13;;;11.93;;
8104;SDS011;4095;48.942;9.104;2023-12-20T00:14:24;15.80;;;11.97;;
8104;SDS011;4095;48.942;9.104;2023-12-20T00:16:50;21.93;;;14.53;;
8104;SDS011;4095;48.942;9.104;2023-12-20T00:19:15;30.57;;;18.00;;
8104;SDS011;4095;48.942;9.104;2023-12-20T00:21:41;28.50;;;16.27;;
8104;SDS011;4095;48.942;9.104;2023-12-20T00:24:07;26.10;;;14.93;;
8104;SDS011;4095;48.942;9.104;2023-12-20T00:26:33;16.23;;;12.40;;
8104;SDS011;4095;48.942;9.104;2023-12-20T00:28:59;17.13;;;12.83;;
8104;SDS011;4095;48.942;9.104;2023-12-20T00:31:24;15.77;;;12.17;;
8104;SDS011;4095;48.942;9.104;2023-12-20T00:33:50;13.70;;;11.20;;
8104;SDS011;4095;48.942;9.104;2023-12-20T00:36:15;15.17;;;12.57;;
8104;SDS011;4095;48.942;9.104;2023-12-20T00:38:42;14.13;;;11.80;;
8104;SDS011;4095;48.942;9.104;2023-12-20T00:41:08;13.37;;;11.27;;
8104;SDS011;4095;48.942;9.104;2023-12-20T00:43:33;14.10;;;11.07;;
8104;SDS011;4095;48.942;9.104;2023-12-20T00:45:59;12.10;;;10.73;;
8104;SDS011;4095;48.942;9.104;2023-12-20T00:48:27;12.97;;;10.60;;
8104;SDS011;4095;48.942;9.104;2023-12-20T00:50:55;16.77;;;11.00;;
8104;SDS011;4095;48.942;9.104;2023-12-20T00:53:20;13.13;;;10.80;;
8104;SDS011;4095;48.942;9.104;2023-12-20T00:55:46;12.93;;;11.40;;
8104;SDS011;4095;48.942;9.104;2023-12-20T00:58:11;12.57;;;11.27;;
8104;SDS011;4095;48.942;9.104;2023-12-20T01:00:37;13.73;;;11.57;;
8104;SDS011;4095;48.942;9.104;2023-12-20T01:03:03;13.60;;;11.20;;
8104;SDS011;4095;48.942;9.104;2023-12-20T01:05:28;13.87;;;11.90;;
8104;SDS011;4095;48.942;9.104;2023-12-20T01:07:54;13.20;;;11.47;;
8104;SDS011;4095;48.942;9.104;2023-12-20T01:10:20;13.53;;;11.73;;
8104;SDS011;4095;48.942;9.104;2023-12-20T01:12:47;14.07;;;11.57;;
8104;SDS011;4095;48.942;9.104;2023-12-20T01:15:12;12.13;;;10.83;;
8104;SDS011;4095;48.942;9.104;2023-12-20T01:17:38;14.83;;;11.37;;
8104;SDS011;4095;48.942;9.104;2023-12-20T01:20:03;14.53;;;11.57;;
8104;SDS011;4095;48.942;9.104;2023-12-20T01:22:29;13.50;;;11.17;;
8104;SDS011;4095;48.942;9.104;2023-12-20T01:24:55;12.90;;;10.87;;
8104;SDS011;4095;48.942;9.104;2023-12-20T01:27:20;11.93;;;10.27;;
8104;SDS011;4095;48.942;9.104;2023-12-20T01:29:46;12.53;;;10.60;;
8104;SDS011;4095;48.942;9.104;2023-12-20T01:32:11;15.43;;;11.37;;
8104;SDS011;4095;48.942;9.104;2023-12-20T01:34:37;13.80;;;11.60;;
8104;SDS011;4095;48.942;9.104;2023-12-20T01:37:03;12.83;;;11.53;;
8104;SDS011;4095;48.942;9.104;2023-12-20T01:39:29;14.23;;;12.17;;
8104;SDS011;4095;48.942;9.104;2023-12-20T01:41:54;12.83;;;11.20;;
8104;SDS011;4095;48.942;9.104;2023-12-20T01:44:20;14.37;;;11.63;;
8104;SDS011;4095;48.942;9.104;2023-12-20T01:46:45;14.17;;;11.33;;
8104;SDS011;4095;48.942;9.104;2023-12-20T01:49:12;11.93;;;10.67;;
8104;SDS011;4095;48.942;9.104;2023-12-20T01:51:38;13.07;;;10.70;;
8104;SDS011;4095;48.942;9.104;2023-12-20T01:54:03;11.27;;;10.07;;
8104;SDS011;4095;48.942;9.104;2023-12-20T01:56:29;11.87;;;9.87;;
8104;SDS011;4095;48.942;9.104;2023-12-20T01:58:56;10.57;;;9.47;;
8104;SDS011;4095;48.942;9.104;2023-12-20T02:01:22;10.20;;;8.87;;
8104;SDS011;4095;48.942;9.104;2023-12-20T02:03:49;9.43;;;8.20;;
8104;SDS011;4095;48.942;9.104;2023-12-20T02:06:16;8.83;;;7.70;;
8104;SDS011;4095;48.942;9.104;2023-12-20T02:08:43;8.90;;;7.60;;
8104;SDS011;4095;48.942;9.104;2023-12-20T02:11:08;7.27;;;6.53;;
8104;SDS011;4095;48.942;9.104;2023-12-20T02:13:35;6.03;;;5.37;;
8104;SDS011;4095;48.942;9.104;2023-12-20T02:16:01;5.83;;;4.97;;
8104;SDS011;4095;48.942;9.104;2023-12-20T02:18:27;5.50;;;4.50;;
8104;SDS011;4095;48.942;9.104;2023-12-20T02:20:53;4.87;;;4.33;;
8104;SDS011;4095;48.942;9.104;2023-12-20T02:23:18;4.33;;;3.47;;
8104;SDS011;4095;48.942;9.104;2023-12-20T02:25:44;4.27;;;3.50;;
8104;SDS011;4095;48.942;9.104;2023-12-20T02:28:09;3.47;;;3.07;;
8104;SDS011;4095;48.942;9.104;2023-12-20T02:30:35;3.53;;;3.20;;
8104;SDS011;4095;48.942;9.104;2023-12-20T02:33:01;3.17;;;2.80;;
8104;SDS011;4095;48.942;9.104;2023-12-20T02:35:28;3.43;;;2.20;;
8104;SDS011;4095;48.942;9.104;2023-12-20T02:37:54;3.70;;;2.37;;
8104;SDS011;4095;48.942;9.104;2023-12-20T02:40:19;2.90;;;2.13;;
8104;SDS011;4095;48.942;9.104;2023-12-20T02:42:45;3.20;;;2.00;;
8104;SDS011;4095;48.942;9.104;2023-12-20T02:45:10;2.70;;;1.70;;
8104;SDS011;4095;48.942;9.104;2023-12-20T02:47:36;1.50;;;1.40;;
8104;SDS011;4095;48.942;9.104;2023-12-20T02:50:01;1.70;;;1.33;;
8104;SDS011;4095;48.942;9.104;2023-12-20T02:52:28;1.97;;;1.77;;
8104;SDS011;4095;48.942;9.104;2023-12-20T02:54:54;2.27;;;1.53;;
8104;SDS011;4095;48.942;9.104;2023-12-20T02:57:19;1.63;;;1.53;;
8104;SDS011;4095;48.942;9.104;2023-12-20T02:59:45;3.03;;;1.80;;
8104;SDS011;4095;48.942;9.104;2023-12-20T03:02:10;2.03;;;1.80;;
8104;SDS011;4095;48.942;9.104;2023-12-20T03:04:36;2.07;;;1.60;;
8104;SDS011;4095;48.942;9.104;2023-12-20T03:07:02;2.63;;;1.90;;
8104;SDS011;4095;48.942;9.104;2023-12-20T03:09:27;2.77;;;1.77;;
8104;SDS011;4095;48.942;9.104;2023-12-20T03:11:53;1.93;;;1.53;;
8104;SDS011;4095;48.942;9.104;2023-12-20T03:14:18;3.47;;;1.97;;
8104;SDS011;4095;48.942;9.104;2023-12-20T03:16:50;2.73;;;1.67;;
8104;SDS011;4095;48.942;9.104;2023-12-20T03:19:16;1.73;;;1.33;;
8104;SDS011;4095;48.942;9.104;2023-12-20T03:21:42;1.90;;;1.70;;
8104;SDS011;4095;48.942;9.104;2023-12-20T03:24:08;2.57;;;1.10;;
8104;SDS011;4095;48.942;9.104;2023-12-20T03:26:34;3.97;;;1.30;;
8104;SDS011;4095;48.942;9.104;2023-12-20T03:28:59;2.17;;;1.53;;
8104;SDS011;4095;48.942;9.104;2023-12-20T03:31:25;3.23;;;1.20;;
8104;SDS011;4095;48.942;9.104;2023-12-20T03:33:50;1.70;;;1.20;;
8104;SDS011;4095;48.942;9.104;2023-12-20T03:36:18;3.40;;;1.37;;
8104;SDS011;4095;48.942;9.104;2023-12-20T03:38:44;1.63;;;1.17;;
8104;SDS011;4095;48.942;9.104;2023-12-20T03:41:11;1.30;;;1.20;;
8104;SDS011;4095;48.942;9.104;2023-12-20T03:43:36;1.73;;;1.40;;
8104;SDS011;4095;48.942;9.104;2023-12-20T03:46:02;2.40;;;1.30;;
8104;SDS011;4095;48.942;9.104;2023-12-20T03:48:29;2.13;;;1.20;;
8104;SDS011;4095;48.942;9.104;2023-12-20T03:50:56;1.23;;;1.13;;
8104;SDS011;4095;48.942;9.104;2023-12-20T03:53:22;1.20;;;1.10;;
8104;SDS011;4095;48.942;9.104;2023-12-20T03:55:47;1.30;;;1.20;;
8104;SDS011;4095;48.942;9.104;2023-12-20T03:58:13;0.90;;;0.90;;
8104;SDS011;4095;48.942;9.104;2023-12-20T04:00:39;1.20;;;1.00;;
8104;SDS011;4095;48.942;9.104;2023-12-20T04:03:04;1.33;;;0.90;;
8104;SDS011;4095;48.942;9.104;2023-12-20T04:05:30;0.90;;;0.90;;
8104;SDS011;4095;48.942;9.104;2023-12-20T04:07:55;0.90;;;0.90;;
8104;SDS011;4095;48.942;9.104;2023-12-20T04:10:21;0.77;;;0.77;;
8104;SDS011;4095;48.942;9.104;2023-12-20T04:12:46;0.70;;;0.70;;
8104;SDS011;4095;48.942;9.104;2023-12-20T04:15:12;0.90;;;0.90;;
8104;SDS011;4095;48.942;9.104;2023-12-20T04:17:37;1.00;;;1.00;;
8104;SDS011;4095;48.942;9.104;2023-12-20T04:20:03;1.10;;;1.00;;
8104;SDS011;4095;48.942;9.104;2023-12-20T04:22:30;0.90;;;0.90;;
8104;SDS011;4095;48.942;9.104;2023-12-20T04:24:55;1.17;;;0.73;;
8104;SDS011;4095;48.942;9.104;2023-12-20T04:27:21;1.30;;;1.20;;
8104;SDS011;4095;48.942;9.104;2023-12-20T04:29:46;1.10;;;1.00;;
8104;SDS011;4095;48.942;9.104;2023-12-20T04:32:12;1.03;;;0.90;;
8104;SDS011;4095;48.942;9.104;2023-12-20T04:34:38;0.80;;;0.80;;
8104;SDS011;4095;48.942;9.104;2023-12-20T04:37:04;2.10;;;1.00;;
8104;SDS011;4095;48.942;9.104;2023-12-20T04:39:29;1.23;;;1.13;;
8104;SDS011;4095;48.942;9.104;2023-12-20T04:41:55;0.90;;;0.90;;
8104;SDS011;4095;48.942;9.104;2023-12-20T04:44:21;3.40;;;2.90;;
8104;SDS011;4095;48.942;9.104;2023-12-20T04:46:46;7.20;;;4.93;;
8104;SDS011;4095;48.942;9.104;2023-12-20T04:49:12;9.43;;;6.10;;
8104;SDS011;4095;48.942;9.104;2023-12-20T04:51:37;7.20;;;4.40;;
8104;SDS011;4095;48.942;9.104;2023-12-20T04:54:03;5.60;;;3.80;;
8104;SDS011;4095;48.942;9.104;2023-12-20T04:56:29;1.87;;;1.50;;
8104;SDS011;4095;48.942;9.104;2023-12-20T04:58:54;1.30;;;1.20;;
8104;SDS011;4095;48.942;9.104;2023-12-20T05:01:20;1.27;;;1.17;;
8104;SDS011;4095;48.942;9.104;2023-12-20T05:03:46;1.40;;;1.30;;
8104;SDS011;4095;48.942;9.104;2023-12-20T05:06:12;1.50;;;1.40;;
8104;SDS011;4095;48.942;9.104;2023-12-20T05:08:37;4.50;;;3.77;;
8104;SDS011;4095;48.942;9.104;2023-12-20T05:11:03;1.80;;;1.70;;
8104;SDS011;4095;48.942;9.104;2023-12-20T05:13:29;1.50;;;1.40;;
8104;SDS011;4095;48.942;9.104;2023-12-20T05:15:54;2.73;;;2.00;;
8104;SDS011;4095;48.942;9.104;2023-12-20T05:18:20;2.40;;;2.03;;
8104;SDS011;4095;48.942;9.104;2023-12-20T05:20:46;2.70;;;2.40;;
8104;SDS011;4095;48.942;9.104;2023-12-20T05:23:12;2.13;;;1.93;;
8104;SDS011;4095;48.942;9.104;2023-12-20T05:25:38;2.30;;;2.10;;
8104;SDS011;4095;48.942;9.104;2023-12-20T05:28:04;1.97;;;1.77;;
8104;SDS011;4095;48.942;9.104;2023-12-20T05:30:30;2.03;;;1.93;;
8104;SDS011;4095;48.942;9.104;2023-12-20T05:32:55;2.20;;;2.00;;
8104;SDS011;4095;48.942;9.104;2023-12-20T05:35:21;2.30;;;2.10;;
8104;SDS011;4095;48.942;9.104;2023-12-20T05:37:48;2.00;;;1.90;;
8104;SDS011;4095;48.942;9.104;2023-12-20T05:40:14;3.03;;;2.07;;
8104;SDS011;4095;48.942;9.104;2023-12-20T05:42:40;2.50;;;2.30;;
8104;SDS011;4095;48.942;9.104;2023-12-20T05:45:06;2.80;;;2.30;;
8104;SDS011;4095;48.942;9.104;2023-12-20T05:47:31;2.60;;;2.27;;
8104;SDS011;4095;48.942;9.104;2023-12-20T05:49:57;3.53;;;2.70;;
8104;SDS011;4095;48.942;9.104;2023-12-20T05:52:23;3.73;;;2.80;;
8104;SDS011;4095;48.942;9.104;2023-12-20T05:54:48;4.17;;;3.40;;
8104;SDS011;4095;48.942;9.104;2023-12-20T05:57:14;4.07;;;2.97;;
8104;SDS011;4095;48.942;9.104;2023-12-20T05:59:39;2.63;;;2.43;;
8104;SDS011;4095;48.942;9.104;2023-12-20T06:02:05;2.40;;;2.20;;
8104;SDS011;4095;48.942;9.104;2023-12-20T06:04:31;2.60;;;2.13;;
8104;SDS011;4095;48.942;9.104;2023-12-20T06:06:57;2.60;;;2.40;;
8104;SDS011;4095;48.942;9.104;2023-12-20T06:09:22;2.60;;;2.40;;
8104;SDS011;4095;48.942;9.104;2023-12-20T06:11:49;2.40;;;2.20;;
8104;SDS011;4095;48.942;9.104;2023-12-20T06:14:14;3.23;;;2.17;;
8104;SDS011;4095;48.942;9.104;2023-12-20T06:16:40;3.50;;;2.37;;
8104;SDS011;4095;48.942;9.104;2023-12-20T06:19:06;2.50;;;2.30;;
8104;SDS011;4095;48.942;9.104;2023-12-20T06:21:31;3.30;;;3.00;;
8104;SDS011;4095;48.942;9.104;2023-12-20T06:23:58;3.63;;;3.30;;
8104;SDS011;4095;48.942;9.104;2023-12-20T06:26:24;6.63;;;5.10;;
8104;SDS011;4095;48.942;9.104;2023-12-20T06:28:49;4.80;;;4.40;;
8104;SDS011;4095;48.942;9.104;2023-12-20T06:31:15;3.90;;;2.90;;
8104;SDS011;4095;48.942;9.104;2023-12-20T06:33:41;3.43;;;3.13;;
8104;SDS011;4095;48.942;9.104;2023-12-20T06:36:10;3.60;;;3.30;;
8104;SDS011;4095;48.942;9.104;2023-12-20T06:38:37;3.50;;;3.20;;
8104;SDS011;4095;48.942;9.104;2023-12-20T06:41:02;3.30;;;3.00;;
8104;SDS011;4095;48.942;9.104;2023-12-20T06:43:28;3.87;;;3.50;;
8104;SDS011;4095;48.942;9.104;2023-12-20T06:45:54;4.07;;;3.77;;
8104;SDS011;4095;48.942;9.104;2023-12-20T06:48:19;3.50;;;3.20;;
8104;SDS011;4095;48.942;9.104;2023-12-20T06:50:45;3.73;;;3.43;;
8104;SDS011;4095;48.942;9.104;2023-12-20T06:53:11;4.40;;;4.00;;
8104;SDS011;4095;48.942;9.104;2023-12-20T06:55:37;4.07;;;3.77;;
8104;SDS011;4095;48.942;9.104;2023-12-20T06:58:03;4.13;;;3.83;;
8104;SDS011;4095;48.942;9.104;2023-12-20T07:00:29;4.90;;;4.50;;
8104;SDS011;4095;48.942;9.104;2023-12-20T07:02:55;4.87;;;4.47;;
8104;SDS011;4095;48.942;9.104;2023-12-20T07:05:21;5.83;;;4.03;;
8104;SDS011;4095;48.942;9.104;2023-12-20T07:07:47;4.53;;;4.13;;
8104;SDS011;4095;48.942;9.104;2023-12-20T07:10:13;4.90;;;4.50;;
8104;SDS011;4095;48.942;9.104;2023-12-20T07:12:38;5.03;;;4.63;;
8104;SDS011;4095;48.942;9.104;2023-12-20T07:15:04;5.33;;;4.83;;
8104;SDS011;4095;48.942;9.104;2023-12-20T07:17:31;5.63;;;5.13;;
8104;SDS011;4095;48.942;9.104;2023-12-20T07:19:58;5.03;;;4.63;;
8104;SDS011;4095;48.942;9.104;2023-12-20T07:22:24;5.47;;;5.07;;
8104;SDS011;4095;48.942;9.104;2023-12-20T07:24:49;5.67;;;5.17;;
8104;SDS011;4095;48.942;9.104;2023-12-20T07:27:17;5.47;;;4.97;;
8104;SDS011;4095;48.942;9.104;2023-12-20T07:29:43;7.27;;;5.60;;
8104;SDS011;4095;48.942;9.104;2023-12-20T07:32:08;6.30;;;5.70;;
8104;SDS011;4095;48.942;9.104;2023-12-20T07:34:34;5.83;;;5.33;;
8104;SDS011;4095;48.942;9.104;2023-12-20T07:36:59;5.27;;;4.87;;
8104;SDS011;4095;48.942;9.104;2023-12-20T07:39:25;6.00;;;5.50;;
8104;SDS011;4095;48.942;9.104;2023-12-20T07:41:50;5.30;;;4.80;;
8104;SDS011;4095;48.942;9.104;2023-12-20T07:44:16;6.03;;;5.27;;
8104;SDS011;4095;48.942;9.104;2023-12-20T07:46:41;5.20;;;4.57;;
8104;SDS011;4095;48.942;9.104;2023-12-20T07:49:07;4.97;;;4.47;;
8104;SDS011;4095;48.942;9.104;2023-12-20T07:51:33;5.10;;;4.30;;
8104;SDS011;4095;48.942;9.104;2023-12-20T07:53:59;4.83;;;4.43;;
8104;SDS011;4095;48.942;9.104;2023-12-20T07:56:24;6.17;;;4.37;;
8104;SDS011;4095;48.942;9.104;2023-12-20T07:58:50;4.67;;;4.27;;
8104;SDS011;4095;48.942;9.104;2023-12-20T08:01:16;4.50;;;4.10;;
8104;SDS011;4095;48.942;9.104;2023-12-20T08:03:43;5.80;;;5.20;;
8104;SDS011;4095;48.942;9.104;2023-12-20T08:06:08;5.17;;;4.67;;
8104;SDS011;4095;48.942;9.104;2023-12-20T08:08:34;5.13;;;4.60;;
8104;SDS011;4095;48.942;9.104;2023-12-20T08:10:59;4.53;;;4.13;;
8104;SDS011;4095;48.942;9.104;2023-12-20T08:13:26;4.63;;;4.23;;
8104;SDS011;4095;48.942;9.104;2023-12-20T08:15:52;5.27;;;4.33;;
8104;SDS011;4095;48.942;9.104;2023-12-20T08:18:18;5.57;;;4.40;;
8104;SDS011;4095;48.942;9.104;2023-12-20T08:20:44;4.30;;;3.90;;
8104;SDS011;4095;48.942;9.104;2023-12-20T08:23:09;4.57;;;4.17;;
8104;SDS011;4095;48.942;9.104;2023-12-20T08:25:35;5.87;;;3.73;;
8104;SDS011;4095;48.942;9.104;2023-12-20T08:28:01;3.77;;;3.47;;
8104;SDS011;4095;48.942;9.104;2023-12-20T08:30:28;5.53;;;3.73;;
8104;SDS011;4095;48.942;9.104;2023-12-20T08:32:54;4.10;;;3.70;;
8104;SDS011;4095;48.942;9.104;2023-12-20T08:35:20;3.73;;;3.43;;
8104;SDS011;4095;48.942;9.104;2023-12-20T08:37:46;3.80;;;3.40;;
8104;SDS011;4095;48.942;9.104;2023-12-20T08:40:11;3.90;;;3.33;;
8104;SDS011;4095;48.942;9.104;2023-12-20T08:42:37;4.67;;;3.70;;
8104;SDS011;4095;48.942;9.104;2023-12-20T08:45:02;3.67;;;3.13;;
8104;SDS011;4095;48.942;9.104;2023-12-20T08:47:29;5.60;;;3.57;;
8104;SDS011;4095;48.942;9.104;2023-12-20T08:49:55;4.10;;;3.63;;
8104;SDS011;4095;48.942;9.104;2023-12-20T08:52:24;3.40;;;3.10;;
8104;SDS011;4095;48.942;9.104;2023-12-20T08:54:52;4.27;;;2.93;;
8104;SDS011;4095;48.942;9.104;2023-12-20T08:57:21;4.53;;;3.00;;
8104;SDS011;4095;48.942;9.104;2023-12-20T08:59:48;3.40;;;3.10;;
8104;SDS011;4095;48.942;9.104;2023-12-20T09:02:17;4.27;;;3.27;;
8104;SDS011;4095;48.942;9.104;2023-12-20T09:04:42;3.83;;;3.37;;
8104;SDS011;4095;48.942;9.104;2023-12-20T09:07:24;4.23;;;3.10;;
8104;SDS011;4095;48.942;9.104;2023-12-20T09:09:51;3.93;;;3.33;;
8104;SDS011;4095;48.942;9.104;2023-12-20T09:12:20;5.33;;;3.43;;
8104;SDS011;4095;48.942;9.104;2023-12-20T09:14:46;4.43;;;3.20;;
8104;SDS011;4095;48.942;9.104;2023-12-20T09:17:12;3.63;;;3.00;;
8104;SDS011;4095;48.942;9.104;2023-12-20T09:19:38;3.50;;;3.00;;
8104;SDS011;4095;48.942;9.104;2023-12-20T09:22:04;4.10;;;3.03;;
8104;SDS011;4095;48.942;9.104;2023-12-20T09:24:30;3.33;;;2.90;;
8104;SDS011;4095;48.942;9.104;2023-12-20T09:26:56;3.50;;;2.77;;
8104;SDS011;4095;48.942;9.104;2023-12-20T09:29:21;4.50;;;2.70;;
8104;SDS011;4095;48.942;9.104;2023-12-20T09:31:47;4.10;;;2.60;;
8104;SDS011;4095;48.942;9.104;2023-12-20T09:34:14;4.93;;;2.60;;
8104;SDS011;4095;48.942;9.104;2023-12-20T09:36:40;5.80;;;2.60;;
8104;SDS011;4095;48.942;9.104;2023-12-20T09:39:11;4.63;;;2.40;;
8104;SDS011;4095;48.942;9.104;2023-12-20T09:41:44;3.70;;;2.30;;
8104;SDS011;4095;48.942;9.104;2023-12-20T09:44:15;5.60;;;2.40;;
8104;SDS011;4095;48.942;9.104;2023-12-20T09:46:43;5.83;;;2.07;;
8104;SDS011;4095;48.942;9.104;2023-12-20T09:49:10;3.63;;;1.93;;
8104;SDS011;4095;48.942;9.104;2023-12-20T09:51:37;3.60;;;2.13;;
8104;SDS011;4095;48.942;9.104;2023-12-20T09:54:03;5.60;;;2.17;;
8104;SDS011;4095;48.942;9.104;2023-12-20T09:56:29;4.90;;;2.33;;
8104;SDS011;4095;48.942;9.104;2023-12-20T09:58:55;6.73;;;2.03;;
8104;SDS011;4095;48.942;9.104;2023-12-20T10:01:21;4.83;;;2.00;;
8104;SDS011;4095;48.942;9.104;2023-12-20T10:03:47;4.77;;;2.20;;
8104;SDS011;4095;48.942;9.104;2023-12-20T10:06:12;4.80;;;2.17;;
8104;SDS011;4095;48.942;9.104;2023-12-20T10:08:38;4.73;;;2.20;;
8104;SDS011;4095;48.942;9.104;2023-12-20T10:11:04;2.77;;;1.80;;
8104;SDS011;4095;48.942;9.104;2023-12-20T10:13:30;4.73;;;1.70;;
8104;SDS011;4095;48.942;9.104;2023-12-20T10:15:56;4.63;;;1.77;;
8104;SDS011;4095;48.942;9.104;2023-12-20T10:18:22;5.50;;;2.07;;
8104;SDS011;4095;48.942;9.104;2023-12-20T10:20:48;5.07;;;1.57;;
8104;SDS011;4095;48.942;9.104;2023-12-20T10:23:15;5.17;;;1.90;;
8104;SDS011;4095;48.942;9.104;2023-12-20T10:25:41;4.10;;;1.60;;
8104;SDS011;4095;48.942;9.104;2023-12-20T10:30:39;4.27;;;1.77;;
8104;SDS011;4095;48.942;9.104;2023-12-20T10:33:06;3.77;;;1.63;;
8104;SDS011;4095;48.942;9.104;2023-12-20T10:35:33;6.03;;;2.00;;
8104;SDS011;4095;48.942;9.104;2023-12-20T10:37:59;4.60;;;2.00;;
8104;SDS011;4095;48.942;9.104;2023-12-20T10:40:29;4.67;;;1.73;;
8104;SDS011;4095;48.942;9.104;2023-12-20T10:42:55;4.00;;;1.73;;
8104;SDS011;4095;48.942;9.104;2023-12-20T10:45:22;4.10;;;1.70;;
8104;SDS011;4095;48.942;9.104;2023-12-20T10:47:48;6.60;;;2.00;;
8104;SDS011;4095;48.942;9.104;2023-12-20T10:50:15;4.40;;;1.50;;
8104;SDS011;4095;48.942;9.104;2023-12-20T10:52:41;6.17;;;2.03;;
8104;SDS011;4095;48.942;9.104;2023-12-20T10:55:09;6.27;;;1.90;;
8104;SDS011;4095;48.942;9.104;2023-12-20T10:57:35;4.87;;;2.13;;
8104;SDS011;4095;48.942;9.104;2023-12-20T11:00:01;4.40;;;2.10;;
8104;SDS011;4095;48.942;9.104;2023-12-20T11:02:32;3.47;;;1.73;;
8104;SDS011;4095;48.942;9.104;2023-12-20T11:07:46;6.90;;;2.27;;
8104;SDS011;4095;48.942;9.104;2023-12-20T11:10:19;4.47;;;2.00;;
8104;SDS011;4095;48.942;9.104;2023-12-20T11:15:25;6.23;;;1.90;;
8104;SDS011;4095;48.942;9.104;2023-12-20T11:17:55;4.37;;;1.83;;
8104;SDS011;4095;48.942;9.104;2023-12-20T11:20:34;4.40;;;1.70;;
8104;SDS011;4095;48.942;9.104;2023-12-20T11:23:04;6.40;;;1.90;;
8104;SDS011;4095;48.942;9.104;2023-12-20T11:25:34;5.30;;;1.73;;
8104;SDS011;4095;48.942;9.104;2023-12-20T11:28:16;5.17;;;2.20;;
8104;SDS011;4095;48.942;9.104;2023-12-20T11:30:47;8.00;;;2.10;;
8104;SDS011;4095;48.942;9.104;2023-12-20T11:33:15;4.07;;;1.97;;
8104;SDS011;4095;48.942;9.104;2023-12-20T11:35:41;3.67;;;1.70;;
8104;SDS011;4095;48.942;9.104;2023-12-20T11:38:08;3.27;;;2.10;;
8104;SDS011;4095;48.942;9.104;2023-12-20T11:40:35;3.47;;;1.90;;
8104;SDS011;4095;48.942;9.104;2023-12-20T11:43:01;5.97;;;2.50;;
8104;SDS011;4095;48.942;9.104;2023-12-20T11:45:27;7.13;;;2.60;;
8104;SDS011;4095;48.942;9.104;2023-12-20T11:47:53;6.93;;;2.23;;
8104;SDS011;4095;48.942;9.104;2023-12-20T11:50:20;5.67;;;2.67;;
8104;SDS011;4095;48.942;9.104;2023-12-20T11:52:47;6.53;;;2.87;;
8104;SDS011;4095;48.942;9.104;2023-12-20T11:55:13;4.73;;;2.43;;
8104;SDS011;4095;48.942;9.104;2023-12-20T11:57:39;7.73;;;2.37;;
8104;SDS011;4095;48.942;9.104;2023-12-20T12:00:05;7.30;;;2.83;;
8104;SDS011;4095;48.942;9.104;2023-12-20T12:02:31;6.87;;;2.37;;
8104;SDS011;4095;48.942;9.104;2023-12-20T12:04:57;7.83;;;2.43;;
8104;SDS011;4095;48.942;9.104;2023-12-20T12:07:24;6.40;;;2.40;;
8104;SDS011;4095;48.942;9.104;2023-12-20T12:09:50;4.80;;;2.37;;
8104;SDS011;4095;48.942;9.104;2023-12-20T12:12:16;8.83;;;2.43;;
8104;SDS011;4095;48.942;9.104;2023-12-20T12:14:42;5.67;;;2.50;;
8104;SDS011;4095;48.942;9.104;2023-12-20T12:17:10;5.00;;;2.10;;
8104;SDS011;4095;48.942;9.104;2023-12-20T12:19:37;4.53;;;2.30;;
8104;SDS011;4095;48.942;9.104;2023-12-20T12:22:05;4.23;;;2.10;;
8104;SDS011;4095;48.942;9.104;2023-12-20T12:24:33;6.67;;;2.40;;
8104;SDS011;4095;48.942;9.104;2023-12-20T12:26:59;4.13;;;1.90;;
8104;SDS011;4095;48.942;9.104;2023-12-20T12:29:24;9.17;;;2.30;;
8104;SDS011;4095;48.942;9.104;2023-12-20T12:31:50;5.03;;;2.17;;
8104;SDS011;4095;48.942;9.104;2023-12-20T12:34:17;5.53;;;2.70;;
8104;SDS011;4095;48.942;9.104;2023-12-20T12:36:43;6.63;;;2.53;;
8104;SDS011;4095;48.942;9.104;2023-12-20T12:39:08;5.97;;;2.60;;
8104;SDS011;4095;48.942;9.104;2023-12-20T12:41:36;6.80;;;2.70;;
8104;SDS011;4095;48.942;9.104;2023-12-20T12:44:02;6.80;;;2.30;;
8104;SDS011;4095;48.942;9.104;2023-12-20T12:46:28;5.13;;;2.57;;
8104;SDS011;4095;48.942;9.104;2023-12-20T12:48:54;6.50;;;2.77;;
8104;SDS011;4095;48.942;9.104;2023-12-20T12:51:19;8.03;;;3.00;;
8104;SDS011;4095;48.942;9.104;2023-12-20T12:53:45;4.80;;;2.00;;
8104;SDS011;4095;48.942;9.104;2023-12-20T12:56:11;4.87;;;1.90;;
8104;SDS011;4095;48.942;9.104;2023-12-20T12:58:37;5.57;;;2.03;;
8104;SDS011;4095;48.942;9.104;2023-12-20T13:01:03;3.90;;;1.97;;
8104;SDS011;4095;48.942;9.104;2023-12-20T13:03:29;5.63;;;2.20;;
8104;SDS011;4095;48.942;9.104;2023-12-20T13:05:55;7.07;;;2.00;;
8104;SDS011;4095;48.942;9.104;2023-12-20T13:08:20;3.90;;;2.07;;
8104;SDS011;4095;48.942;9.104;2023-12-20T13:10:46;5.87;;;2.37;;
8104;SDS011;4095;48.942;9.104;2023-12-20T13:13:12;6.43;;;2.10;;
8104;SDS011;4095;48.942;9.104;2023-12-20T13:15:37;6.60;;;2.53;;
8104;SDS011;4095;48.942;9.104;2023-12-20T13:18:03;6.20;;;2.20;;
8104;SDS011;4095;48.942;9.104;2023-12-20T13:20:31;5.30;;;2.00;;
8104;SDS011;4095;48.942;9.104;2023-12-20T13:22:56;4.87;;;1.97;;
8104;SDS011;4095;48.942;9.104;2023-12-20T13:25:22;6.47;;;2.30;;
8104;SDS011;4095;48.942;9.104;2023-12-20T13:27:48;5.10;;;2.00;;
8104;SDS011;4095;48.942;9.104;2023-12-20T13:30:15;5.53;;;2.20;;
8104;SDS011;4095;48.942;9.104;2023-12-20T13:32:41;6.93;;;2.40;;
8104;SDS011;4095;48.942;9.104;2023-12-20T13:35:07;5.73;;;2.10;;
8104;SDS011;4095;48.942;9.104;2023-12-20T13:37:34;5.23;;;2.50;;
8104;SDS011;4095;48.942;9.104;2023-12-20T13:39:59;5.27;;;2.17;;
8104;SDS011;4095;48.942;9.104;2023-12-20T13:42:25;5.90;;;1.80;;
8104;SDS011;4095;48.942;9.104;2023-12-20T13:44:52;3.43;;;1.83;;
8104;SDS011;4095;48.942;9.104;2023-12-20T13:47:18;5.80;;;2.10;;
8104;SDS011;4095;48.942;9.104;2023-12-20T13:49:44;4.07;;;2.03;;
8104;SDS011;4095;48.942;9.104;2023-12-20T13:52:10;6.43;;;2.47;;
8104;SDS011;4095;48.942;9.104;2023-12-20T13:54:36;5.23;;;2.20;;
8104;SDS011;4095;48.942;9.104;2023-12-20T13:57:02;5.87;;;2.43;;
8104;SDS011;4095;48.942;9.104;2023-12-20T13:59:28;6.03;;;2.67;;
8104;SDS011;4095;48.942;9.104;2023-12-20T14:01:54;4.63;;;2.60;;
8104;SDS011;4095;48.942;9.104;2023-12-20T14:04:20;5.73;;;2.27;;
8104;SDS011;4095;48.942;9.104;2023-12-20T14:06:46;5.70;;;2.50;;
8104;SDS011;4095;48.942;9.104;2023-12-20T14:09:12;5.10;;;2.30;;
8104;SDS011;4095;48.942;9.104;2023-12-20T14:11:38;6.57;;;2.33;;
8104;SDS011;4095;48.942;9.104;2023-12-20T14:14:06;5.03;;;2.20;;
8104;SDS011;4095;48.942;9.104;2023-12-20T14:16:32;5.63;;;2.37;;
8104;SDS011;4095;48.942;9.104;2023-12-20T14:19:01;6.30;;;2.70;;
8104;SDS011;4095;48.942;9.104;2023-12-20T14:21:28;6.37;;;2.43;;
8104;SDS011;4095;48.942;9.104;2023-12-20T14:23:54;6.13;;;3.00;;
8104;SDS011;4095;48.942;9.104;2023-12-20T14:26:19;6.27;;;2.70;;
8104;SDS011;4095;48.942;9.104;2023-12-20T14:28:45;8.33;;;2.43;;
8104;SDS011;4095;48.942;9.104;2023-12-20T14:31:10;6.90;;;2.60;;
8104;SDS011;4095;48.942;9.104;2023-12-20T14:33:36;6.90;;;2.87;;
8104;SDS011;4095;48.942;9.104;2023-12-20T14:36:04;6.10;;;2.70;;
8104;SDS011;4095;48.942;9.104;2023-12-20T14:38:31;6.30;;;2.43;;
8104;SDS011;4095;48.942;9.104;2023-12-20T14:40:56;8.70;;;3.03;;
8104;SDS011;4095;48.942;9.104;2023-12-20T14:43:22;6.43;;;3.10;;
8104;SDS011;4095;48.942;9.104;2023-12-20T14:45:48;8.17;;;2.70;;
8104;SDS011;4095;48.942;9.104;2023-12-20T14:48:15;10.23;;;2.80;;
8104;SDS011;4095;48.942;9.104;2023-12-20T14:50:41;5.87;;;2.30;;
8104;SDS011;4095;48.942;9.104;2023-12-20T14:53:07;8.10;;;2.37;;
8104;SDS011;4095;48.942;9.104;2023-12-20T14:55:33;6.83;;;2.60;;
8104;SDS011;4095;48.942;9.104;2023-12-20T14:57:59;11.97;;;2.63;;
8104;SDS011;4095;48.942;9.104;2023-12-20T15:00:25;7.67;;;2.70;;
8104;SDS011;4095;48.942;9.104;2023-12-20T15:02:51;9.30;;;2.60;;
8104;SDS011;4095;48.942;9.104;2023-12-20T15:05:19;5.73;;;2.37;;
8104;SDS011;4095;48.942;9.104;2023-12-20T15:07:45;14.30;;;3.37;;
8104;SDS011;4095;48.942;9.104;2023-12-20T15:10:13;6.50;;;2.63;;
8104;SDS011;4095;48.942;9.104;2023-12-20T15:12:39;6.23;;;2.50;;
8104;SDS011;4095;48.942;9.104;2023-12-20T15:15:04;6.20;;;2.67;;